Terminal Aerodrome Forecast
Issued by NWS

Home | Current Version | Previous Version | Text Only | Print | Product List | Glossary On
Versions: 1 2 3 4 5 6 7 8 9 10 11 12 13 14 15 16 17 18 19 20 21 22 23 24 25 26 27 28 29 30 31
000
FTUS43 KDDC 012320
TAFGCK
TAF
KGCK 012320Z 0200/0224 08007KT P6SM SKC
     FM020600 02013KT P6SM OVC250
      TEMPO 0206/0209 P6SM -DZ OVC250
     FM020900 34021KT P6SM OVC015 PROB30 0209/0212 P6SM TS BKN015CB
     FM021500 34025KT P6SM OVC050
     FM021800 35019KT P6SM OVC015
     FM022100 34016KT P6SM FEW250=

USA.gov is the U.S. government's official web portal to all federal, state and local government web resources and services.